Rose Valley, Nevada
Current Conditions -  °F | °C
As of 4:53 AM on Friday 26 Dec 2014 (Local Time) from KELY Reporting Station
Overcast Overcast  
Wind Chill:   Ceiling: 3100
Heat Index: 17°   Visibility: 10mi
Dew Point: 12°   Wind: 8mph
Humidity: 81%   Direction: 320°NW
Pressure: 29.95"   Gusts: NA
Location:  38.2635°N, 114.484°W
Report Text: KELY 261253Z AUTO 32007KT 10SM BKN031 OVC046 M08/M11 A2995 RMK AO2 SLP183 T10831111
Loading
Personal Weather Stations






























Interactive Weather Map New forecast layout! Learn more

10-Day Weather Forecast

Advertisements
Track Severe Weather on mobile